Time;durP1;ratioP1;P1;durP2;ratioP2;P2;SDS_P1;SDS_P2;PMS_P1;PMS_P2;Temp;Humidity;BMP_temperature;BMP_pressure;BME280_temperature;BME280_humidity;BME280_pressure;Samples;Min_cycle;Max_cycle;Signal;HPM_P1;HPM_P2
2023/01/16 00:01:48;;;;;;;292.85;163.48;;;5.30;1.00;;;;;;5006060;28;20072;-73
2023/01/16 00:04:15;;;;;;;347.13;202.63;;;5.40;1.00;;;;;;5009057;28;20042;-73
2023/01/16 00:06:43;;;;;;;324.92;191.43;;;5.40;1.00;;;;;;5008640;28;20045;-72
2023/01/16 00:09:11;;;;;;;325.20;190.55;;;5.40;1.00;;;;;;5009205;28;20045;-72
2023/01/16 00:11:39;;;;;;;326.30;188.75;;;5.40;1.00;;;;;;5007610;28;20498;-72
2023/01/16 00:14:07;;;;;;;298.05;168.88;;;5.50;1.00;;;;;;4991390;28;20475;-73
2023/01/16 00:16:36;;;;;;;277.17;158.52;;;5.50;1.00;;;;;;5007988;28;20042;-73
2023/01/16 00:19:03;;;;;;;278.40;154.38;;;5.60;1.00;;;;;;4994013;28;20175;-73
2023/01/16 00:21:31;;;;;;;290.73;161.25;;;5.60;1.00;;;;;;5011407;28;20042;-72
2023/01/16 00:24:00;;;;;;;305.95;168.95;;;5.60;1.00;;;;;;5013222;28;20050;-72
2023/01/16 00:26:28;;;;;;;317.83;177.73;;;5.60;1.00;;;;;;5016607;28;20069;-72
2023/01/16 00:28:56;;;;;;;322.73;183.65;;;5.60;1.00;;;;;;5015425;28;20575;-72
2023/01/16 00:31:24;;;;;;;297.58;167.73;;;5.50;1.00;;;;;;5010692;28;20041;-74
2023/01/16 00:33:53;;;;;;;277.90;152.32;;;5.60;1.00;;;;;;5013322;28;20050;-72
2023/01/16 00:36:20;;;;;;;263.80;141.05;;;5.60;1.00;;;;;;5027674;28;20050;-72
2023/01/16 00:38:48;;;;;;;272.52;149.02;;;5.60;1.00;;;;;;5031580;28;20048;-73
2023/01/16 00:41:16;;;;;;;270.45;146.65;;;5.60;1.00;;;;;;5026930;28;20068;-76
2023/01/16 00:43:43;;;;;;;265.60;147.77;;;5.70;1.00;;;;;;5012293;28;20053;-73
2023/01/16 00:46:11;;;;;;;260.08;140.25;;;5.70;1.00;;;;;;5012153;28;20042;-73
2023/01/16 00:48:38;;;;;;;285.17;152.80;;;5.80;1.00;;;;;;5012813;28;20042;-73
2023/01/16 00:51:07;;;;;;;265.23;144.10;;;5.70;1.00;;;;;;4995023;28;20064;-72
2023/01/16 00:53:36;;;;;;;274.13;150.57;;;5.70;1.00;;;;;;5012473;28;20498;-73
2023/01/16 00:56:03;;;;;;;280.95;151.93;;;5.70;1.00;;;;;;5011582;28;20042;-73
2023/01/16 00:58:32;;;;;;;271.00;148.88;;;5.80;1.00;;;;;;5012181;28;20061;-72
2023/01/16 01:00:59;;;;;;;253.13;142.73;;;5.80;1.00;;;;;;5011115;28;20520;-73
2023/01/16 01:03:28;;;;;;;262.67;146.82;;;5.80;1.00;;;;;;5011818;28;20536;-72
2023/01/16 01:05:56;;;;;;;272.85;151.35;;;5.70;1.00;;;;;;5012048;28;20041;-73
2023/01/16 01:08:25;;;;;;;272.38;150.25;;;5.70;1.00;;;;;;5011292;28;20535;-73
2023/01/16 01:10:52;;;;;;;287.20;157.32;;;5.80;1.00;;;;;;5011411;28;20053;-73
2023/01/16 01:13:19;;;;;;;279.77;157.80;;;5.80;1.00;;;;;;5011733;28;20038;-72
2023/01/16 01:15:47;;;;;;;292.92;162.57;;;5.80;1.00;;;;;;5011671;28;20034;-72
2023/01/16 01:18:14;;;;;;;279.73;162.02;;;5.80;1.00;;;;;;5011214;28;20042;-72
2023/01/16 01:20:41;;;;;;;295.75;169.98;;;5.80;1.00;;;;;;5011166;28;20095;-73
2023/01/16 01:23:09;;;;;;;297.88;172.23;;;5.80;1.00;;;;;;5011559;28;20054;-73
2023/01/16 01:25:39;;;;;;;296.40;166.30;;;5.80;1.00;;;;;;5011830;28;20413;-73
2023/01/16 01:28:07;;;;;;;320.60;183.10;;;5.80;1.00;;;;;;5011012;28;20102;-72
2023/01/16 01:30:34;;;;;;;311.73;178.73;;;5.70;1.00;;;;;;5009230;28;20096;-72
2023/01/16 01:33:02;;;;;;;306.15;170.52;;;5.70;1.00;;;;;;5011293;28;20038;-73
2023/01/16 01:35:29;;;;;;;287.00;166.45;;;5.70;1.00;;;;;;5011044;28;20044;-72
2023/01/16 01:37:57;;;;;;;288.70;164.38;;;5.70;1.00;;;;;;5011246;28;20038;-73
2023/01/16 01:40:24;;;;;;;235.32;133.38;;;5.70;1.00;;;;;;5010961;28;20038;-72
2023/01/16 01:42:53;;;;;;;207.57;120.03;;;5.70;1.00;;;;;;5010888;28;20045;-73
2023/01/16 01:45:24;;;;;;;209.32;117.03;;;5.70;1.00;;;;;;5011233;28;20145;-73
2023/01/16 01:47:57;;;;;;;231.77;128.35;;;5.70;1.00;;;;;;5010980;28;20608;-72
2023/01/16 01:50:37;;;;;;;259.20;131.55;;;5.70;1.00;;;;;;5010880;28;20066;-73
2023/01/16 01:53:10;;;;;;;241.25;127.60;;;5.70;1.00;;;;;;5011038;28;20042;-73
2023/01/16 01:55:39;;;;;;;239.48;125.20;;;5.70;1.00;;;;;;5010993;28;20042;-74
2023/01/16 01:58:08;;;;;;;274.50;143.40;;;5.70;1.00;;;;;;5011813;28;20038;-73
2023/01/16 02:00:35;;;;;;;277.02;145.40;;;5.70;1.00;;;;;;5013069;28;20038;-73
2023/01/16 02:03:07;;;;;;;266.05;149.88;;;5.70;1.00;;;;;;5012632;28;20048;-73
2023/01/16 02:05:38;;;;;;;256.42;135.93;;;5.80;80.10;;;;;;5013156;28;20409;-74
2023/01/16 02:08:07;;;;;;;263.55;140.48;;;5.80;1.00;;;;;;5012022;28;20532;-73
2023/01/16 02:10:40;;;;;;;251.70;139.57;;;5.80;1.00;;;;;;5008177;28;20557;-73
2023/01/16 02:13:08;;;;;;;245.07;137.32;;;5.90;17.40;;;;;;4996453;28;20081;-73
2023/01/16 02:19:14;;;;;;;247.27;131.80;;;5.90;1.00;;;;;;5010957;28;20050;-73
2023/01/16 02:21:29;;;;;;;249.80;137.02;;;5.90;1.00;;;;;;5015210;28;20050;-73
2023/01/16 02:24:27;;;;;;;242.07;129.48;;;5.90;1.00;;;;;;5004569;28;20068;-73
2023/01/16 02:27:25;;;;;;;241.90;132.63;;;5.90;1.00;;;;;;5014430;28;20652;-73
2023/01/16 02:30:31;;;;;;;227.00;126.82;;;5.90;1.00;;;;;;5016061;28;20075;-73
2023/01/16 02:33:10;;;;;;;158.05;91.28;;;5.90;1.00;;;;;;5018731;28;20041;-73
2023/01/16 02:35:53;;;;;;;233.88;128.05;;;5.90;1.00;;;;;;5011531;28;20390;-72
2023/01/16 02:38:29;;;;;;;200.18;112.65;;;5.90;1.00;;;;;;5010082;28;20049;-73
2023/01/16 02:41:04;;;;;;;202.45;115.38;;;5.90;1.00;;;;;;5009090;28;20042;-72
2023/01/16 02:43:37;;;;;;;195.55;114.43;;;5.90;1.00;;;;;;5010509;28;20498;-73
2023/01/16 02:46:13;;;;;;;189.88;111.50;;;5.90;1.00;;;;;;5010050;28;20045;-72
2023/01/16 02:48:46;;;;;;;;;;;5.90;1.00;;;;;;5010641;28;20042;-72
2023/01/16 02:51:19;;;;;;;98.95;57.03;;;5.80;1.00;;;;;;5009734;28;19928;-74
2023/01/16 02:53:52;;;;;;;121.63;71.35;;;5.80;1.00;;;;;;5010871;28;20033;-72
2023/01/16 02:56:28;;;;;;;125.15;73.35;;;5.80;1.00;;;;;;5009720;28;20042;-73
2023/01/16 02:58:56;;;;;;;122.53;70.60;;;5.80;1.00;;;;;;5010926;28;20092;-73
2023/01/16 03:01:23;;;;;;;129.65;73.50;;;5.80;1.00;;;;;;5008830;28;20073;-72
2023/01/16 03:04:05;;;;;;;130.13;75.18;;;5.80;1.00;;;;;;5009561;28;20041;-74
2023/01/16 03:06:44;;;;;;;152.50;86.68;;;5.80;1.00;;;;;;5009356;28;20038;-73
2023/01/16 03:09:33;;;;;;;165.13;90.43;;;5.80;1.00;;;;;;5010097;28;20042;-73
2023/01/16 03:12:16;;;;;;;155.45;86.22;;;5.70;1.00;;;;;;5008308;28;20049;-72
2023/01/16 03:14:52;;;;;;;151.88;87.00;;;5.70;1.00;;;;;;5009837;28;20042;-72
2023/01/16 03:17:37;;;;;;;127.63;73.28;;;5.70;1.00;;;;;;5009332;28;20040;-72
2023/01/16 03:20:25;;;;;;;126.60;75.33;;;5.60;99.90;;;;;;5008244;28;20449;-73
2023/01/16 03:23:04;;;;;;;110.53;63.70;;;5.50;99.90;;;;;;5008493;28;20513;-72
2023/01/16 03:25:36;;;;;;;107.82;62.35;;;5.40;99.90;;;;;;5009620;28;20457;-73
2023/01/16 03:28:10;;;;;;;90.45;52.53;;;5.40;99.90;;;;;;5009406;28;20516;-73
2023/01/16 03:30:47;;;;;;;109.72;61.20;;;5.40;99.90;;;;;;5008625;28;20061;-73
2023/01/16 03:33:22;;;;;;;103.88;58.63;;;5.30;99.90;;;;;;5009332;28;20038;-72
2023/01/16 03:35:56;;;;;;;118.13;62.70;;;5.20;99.90;;;;;;5009045;28;20609;-71
2023/01/16 03:38:25;;;;;;;105.80;55.60;;;5.10;1.00;;;;;;5008984;28;20046;-72
2023/01/16 03:40:53;;;;;;;77.30;42.92;;;5.00;1.00;;;;;;5008584;28;20069;-72
2023/01/16 03:43:25;;;;;;;78.45;46.40;;;5.00;1.00;;;;;;5009226;28;20046;-72
2023/01/16 03:45:56;;;;;;;65.00;37.65;;;5.00;1.00;;;;;;5008955;28;20047;-73
2023/01/16 03:48:28;;;;;;;62.45;34.55;;;5.00;99.90;;;;;;5009474;28;20049;-72
2023/01/16 03:51:02;;;;;;;51.60;30.58;;;5.00;99.90;;;;;;5007908;28;20414;-73
2023/01/16 03:53:34;;;;;;;70.60;41.92;;;5.00;99.90;;;;;;5012850;28;20038;-73
2023/01/16 03:56:08;;;;;;;55.05;32.08;;;5.00;99.90;;;;;;5012854;28;20042;-74
2023/01/16 03:58:39;;;;;;;52.03;30.45;;;4.90;99.90;;;;;;5013058;28;20076;-74
2023/01/16 04:01:15;;;;;;;51.80;30.05;;;4.90;99.90;;;;;;5012171;28;20038;-73
2023/01/16 04:03:49;;;;;;;31.13;18.30;;;4.90;99.90;;;;;;5012229;28;20416;-73
2023/01/16 04:06:21;;;;;;;28.00;15.65;;;4.90;99.90;;;;;;5010612;28;20049;-74
2023/01/16 04:08:52;;;;;;;37.75;20.48;;;5.00;1.00;;;;;;4994934;28;20046;-73
2023/01/16 04:11:22;;;;;;;43.00;24.20;;;5.00;1.00;;;;;;5012716;28;20645;-73
2023/01/16 04:13:53;;;;;;;60.47;35.38;;;5.00;1.00;;;;;;5012301;28;20041;-73
2023/01/16 04:16:22;;;;;;;62.47;36.78;;;5.00;1.00;;;;;;5012747;28;20581;-73
2023/01/16 04:18:54;;;;;;;65.88;39.22;;;5.10;1.00;;;;;;5012538;28;20426;-72
2023/01/16 04:21:27;;;;;;;67.10;38.70;;;5.10;1.00;;;;;;5011586;28;20172;-73
2023/01/16 04:23:57;;;;;;;72.00;41.85;;;5.10;1.00;;;;;;5012546;28;20045;-73
2023/01/16 04:26:24;;;;;;;71.53;41.20;;;5.10;99.90;;;;;;5012407;28;20061;-72
2023/01/16 04:28:54;;;;;;;68.25;40.00;;;5.10;99.90;;;;;;5011991;28;20037;-73
2023/01/16 04:31:23;;;;;;;58.75;33.42;;;5.10;99.90;;;;;;5012072;28;20546;-74
2023/01/16 04:33:51;;;;;;;63.72;37.42;;;5.10;99.90;;;;;;5012779;28;20042;-72
2023/01/16 04:36:18;;;;;;;65.28;36.78;;;5.00;99.90;;;;;;5011618;28;20061;-73
2023/01/16 04:38:47;;;;;;;52.90;30.55;;;5.10;99.90;;;;;;5013351;28;20053;-73
2023/01/16 04:41:35;;;;;;;32.42;19.13;;;5.10;99.90;;;;;;5011590;28;20464;-73
2023/01/16 04:44:03;;;;;;;30.67;18.58;;;5.10;1.00;;;;;;5014069;28;20042;-74
2023/01/16 04:46:31;;;;;;;32.55;18.75;;;5.10;1.00;;;;;;5011681;28;20046;-73
2023/01/16 04:48:58;;;;;;;29.90;16.77;;;5.10;1.00;;;;;;5011094;28;20045;-73
2023/01/16 04:51:27;;;;;;;46.83;27.70;;;5.20;99.90;;;;;;5011551;28;20482;-73
2023/01/16 04:53:56;;;;;;;48.85;28.05;;;5.20;99.90;;;;;;5012543;28;20467;-73
2023/01/16 04:56:24;;;;;;;46.63;26.73;;;5.30;99.90;;;;;;5012010;28;20091;-72
2023/01/16 04:58:53;;;;;;;49.38;27.85;;;5.30;1.00;;;;;;4993725;28;20054;-73
2023/01/16 05:01:21;;;;;;;45.13;24.88;;;5.30;1.00;;;;;;5011348;28;20038;-73
2023/01/16 05:03:48;;;;;;;43.70;23.75;;;5.30;1.00;;;;;;5011163;28;20425;-73
2023/01/16 05:06:16;;;;;;;44.97;25.88;;;5.30;1.00;;;;;;5011892;28;20046;-72
2023/01/16 05:08:44;;;;;;;39.05;24.52;;;5.30;1.00;;;;;;4993748;28;20042;-72
2023/01/16 05:11:13;;;;;;;44.25;23.80;;;5.30;99.90;;;;;;5010727;28;20061;-73
2023/01/16 05:13:40;;;;;;;46.20;25.02;;;5.30;99.90;;;;;;5011519;28;20375;-73
2023/01/16 05:16:08;;;;;;;47.15;25.77;;;5.20;99.90;;;;;;5011802;28;20042;-74
2023/01/16 05:18:36;;;;;;;43.38;24.25;;;5.20;99.90;;;;;;5011049;28;20049;-72
2023/01/16 05:21:04;;;;;;;45.10;24.70;;;5.20;99.90;;;;;;5010231;28;20056;-72
2023/01/16 05:23:33;;;;;;;49.47;26.35;;;5.20;99.90;;;;;;5011318;28;20410;-72
2023/01/16 05:26:00;;;;;;;47.17;24.67;;;5.20;99.90;;;;;;5010923;28;20355;-73
2023/01/16 05:28:29;;;;;;;45.53;24.80;;;5.10;99.90;;;;;;5011125;28;20077;-73
2023/01/16 05:30:57;;;;;;;44.00;23.92;;;5.20;99.90;;;;;;5010608;28;20045;-74
2023/01/16 05:33:25;;;;;;;48.75;26.73;;;5.20;99.90;;;;;;5011447;28;20046;-73
2023/01/16 05:35:53;;;;;;;48.95;28.45;;;5.20;99.90;;;;;;5010269;28;20052;-74
2023/01/16 05:38:21;;;;;;;44.38;23.33;;;5.20;99.90;;;;;;5011111;28;20034;-73
2023/01/16 05:40:49;;;;;;;42.83;23.42;;;5.20;99.90;;;;;;5010184;28;20088;-72
2023/01/16 05:43:16;;;;;;;38.55;24.27;;;5.30;99.90;;;;;;5011055;28;20068;-74
2023/01/16 05:45:45;;;;;;;42.88;23.23;;;5.40;99.90;;;;;;5006503;28;20501;-73
2023/01/16 05:48:13;;;;;;;60.05;31.48;;;5.40;99.90;;;;;;5011785;28;20046;-74
2023/01/16 05:50:40;;;;;;;41.83;23.38;;;5.50;23.10;;;;;;5010119;28;20104;-73
2023/01/16 05:53:07;;;;;;;36.22;20.20;;;5.50;1.00;;;;;;5011367;28;20453;-73
2023/01/16 05:55:42;;;;;;;38.22;20.60;;;5.50;1.00;;;;;;5010144;28;20069;-73
2023/01/16 05:58:11;;;;;;;57.70;29.08;;;5.50;1.00;;;;;;5010498;28;20052;-73
2023/01/16 06:00:38;;;;;;;44.80;23.55;;;5.40;15.10;;;;;;5010318;28;20112;-74
2023/01/16 06:03:07;;;;;;;49.38;26.42;;;5.40;64.30;;;;;;5010078;28;20042;-73
2023/01/16 06:05:35;;;;;;;73.70;38.10;;;5.40;76.80;;;;;;5010796;28;20402;-73
2023/01/16 06:08:04;;;;;;;74.07;42.15;;;5.40;99.90;;;;;;5010158;28;20043;-73
2023/01/16 06:10:32;;;;;;;55.53;32.80;;;5.40;99.90;;;;;;5009597;28;20041;-73
2023/01/16 06:13:00;;;;;;;61.35;36.40;;;5.40;99.90;;;;;;5010109;28;20050;-73
2023/01/16 06:15:28;;;;;;;63.05;39.67;;;5.30;99.90;;;;;;5010025;28;20261;-74
2023/01/16 06:17:56;;;;;;;69.18;41.83;;;5.20;99.90;;;;;;5009248;28;20474;-73
2023/01/16 06:20:27;;;;;;;69.22;40.65;;;5.20;99.90;;;;;;5009999;28;20049;-73
2023/01/16 06:22:55;;;;;;;78.50;43.97;;;5.10;99.90;;;;;;5008911;28;20136;-74
2023/01/16 06:25:22;;;;;;;78.22;43.05;;;5.10;99.90;;;;;;5009041;28;20060;-74
2023/01/16 06:27:50;;;;;;;92.93;48.97;;;5.10;99.90;;;;;;5009556;28;20033;-73
2023/01/16 06:30:18;;;;;;;87.32;48.85;;;5.10;99.90;;;;;;5009012;28;20042;-75
2023/01/16 06:32:48;;;;;;;94.15;53.35;;;5.10;99.90;;;;;;4992734;28;20512;-73
2023/01/16 06:35:16;;;;;;;82.57;47.17;;;5.10;99.90;;;;;;5009743;28;20038;-74
2023/01/16 06:37:45;;;;;;;87.47;49.78;;;5.10;99.90;;;;;;5008458;28;20474;-73
2023/01/16 06:40:13;;;;;;;126.72;64.97;;;5.10;99.90;;;;;;5008866;28;20034;-76
2023/01/16 06:42:40;;;;;;;133.63;68.05;;;5.10;99.90;;;;;;5010124;28;20438;-75
2023/01/16 06:45:08;;;;;;;121.68;61.35;;;5.10;99.90;;;;;;5007720;28;20040;-73
2023/01/16 06:47:36;;;;;;;115.95;63.50;;;5.10;99.90;;;;;;5008308;28;20501;-74
2023/01/16 06:50:03;;;;;;;112.68;58.15;;;5.10;99.90;;;;;;5009365;28;20078;-72
2023/01/16 06:52:31;;;;;;;105.25;56.88;;;5.10;99.90;;;;;;4992066;28;20077;-72
2023/01/16 06:55:00;;;;;;;94.68;51.72;;;5.10;99.90;;;;;;5008904;28;20038;-72
2023/01/16 06:57:27;;;;;;;99.40;56.17;;;5.10;1.00;;;;;;5009845;28;20391;-72
2023/01/16 06:59:54;;;;;;;119.93;67.90;;;5.10;1.00;;;;;;5009124;28;20041;-75
2023/01/16 07:02:22;;;;;;;127.57;71.80;;;5.20;1.00;;;;;;5009652;28;20045;-73
2023/01/16 07:04:49;;;;;;;131.90;78.32;;;5.20;1.00;;;;;;5009089;28;20049;-73
2023/01/16 07:07:17;;;;;;;134.63;75.53;;;5.20;1.00;;;;;;5009021;28;20052;-73
2023/01/16 07:09:44;;;;;;;126.53;74.40;;;5.10;1.00;;;;;;5010465;28;20057;-72
2023/01/16 07:12:13;;;;;;;135.82;78.05;;;5.20;1.00;;;;;;4992120;28;20046;-74
2023/01/16 07:22:57;;;;;;;152.85;81.30;;;5.30;99.90;;;;;;5009350;28;20057;-74
2023/01/16 07:25:31;;;;;;;138.93;75.03;;;5.30;99.90;;;;;;5008024;28;20490;-73
2023/01/16 07:28:00;;;;;;;108.88;61.95;;;5.30;99.90;;;;;;5007282;28;20038;-72
2023/01/16 07:30:28;;;;;;;143.95;81.60;;;5.40;99.90;;;;;;5009444;28;20042;-73
2023/01/16 07:32:55;;;;;;;126.50;70.53;;;5.40;99.90;;;;;;5009417;28;20129;-73
2023/01/16 07:35:23;;;;;;;123.82;68.03;;;5.50;99.90;;;;;;5009554;28;20046;-74
2023/01/16 07:37:51;;;;;;;96.90;54.08;;;5.50;99.90;;;;;;5009858;28;20065;-73
2023/01/16 07:40:19;;;;;;;115.07;59.90;;;5.50;99.90;;;;;;5008656;28;20041;-74
2023/01/16 07:42:46;;;;;;;119.13;64.47;;;5.60;99.90;;;;;;5009426;28;20037;-72
2023/01/16 07:45:15;;;;;;;91.03;49.97;;;5.70;99.90;;;;;;5008967;28;20042;-73
2023/01/16 07:47:42;;;;;;;104.80;56.33;;;5.70;91.40;;;;;;5007078;28;20485;-72
2023/01/16 07:50:11;;;;;;;100.45;53.05;;;5.70;99.90;;;;;;5008828;28;20145;-73
2023/01/16 07:52:39;;;;;;;112.97;62.35;;;5.90;94.20;;;;;;5008859;28;20046;-73
2023/01/16 07:55:07;;;;;;;137.32;78.75;;;6.00;18.10;;;;;;5009193;28;20042;-73
2023/01/16 07:57:36;;;;;;;142.77;80.88;;;6.10;1.00;;;;;;5008855;28;20497;-73
2023/01/16 08:00:05;;;;;;;147.70;82.13;;;6.10;1.00;;;;;;5008232;28;20042;-73
2023/01/16 08:02:54;;;;;;;192.88;110.35;;;6.30;1.00;;;;;;4986362;28;20054;-72
2023/01/16 08:05:21;;;;;;;138.80;79.53;;;6.50;1.00;;;;;;4990257;28;20058;-73
2023/01/16 08:07:49;;;;;;;206.10;117.63;;;6.60;1.00;;;;;;4991745;28;20042;-72
2023/01/16 08:10:17;;;;;;;178.32;104.00;;;6.50;1.00;;;;;;4972246;28;20387;-73
2023/01/16 08:12:44;;;;;;;143.20;81.75;;;6.60;1.00;;;;;;4987850;28;20058;-73
2023/01/16 08:15:12;;;;;;;165.20;95.53;;;6.60;1.00;;;;;;4986996;28;20522;-73
2023/01/16 08:17:40;;;;;;;171.02;99.30;;;6.60;1.00;;;;;;4986034;28;20054;-73
2023/01/16 08:20:11;;;;;;;165.45;97.60;;;6.80;1.00;;;;;;4986750;28;20581;-74
2023/01/16 08:22:43;;;;;;;147.93;88.22;;;7.00;1.00;;;;;;4986795;28;20051;-74
2023/01/16 08:25:10;;;;;;;303.30;186.48;;;7.10;1.00;;;;;;4986218;28;20038;-73
2023/01/16 08:27:38;;;;;;;288.23;170.65;;;7.20;1.00;;;;;;4986662;28;20097;-73
2023/01/16 08:30:06;;;;;;;220.98;131.18;;;7.30;1.00;;;;;;4985413;28;20046;-72
2023/01/16 08:32:33;;;;;;;277.60;165.45;;;7.40;1.00;;;;;;4986628;28;20136;-72
2023/01/16 08:35:03;;;;;;;306.40;178.52;;;7.40;1.00;;;;;;5007213;28;20077;-74
2023/01/16 08:37:32;;;;;;;251.45;146.25;;;7.50;1.00;;;;;;5008597;28;20037;-73
2023/01/16 08:40:00;;;;;;;241.45;139.68;;;7.60;1.00;;;;;;5010487;28;20041;-74
2023/01/16 08:53:40;;;;;;;228.07;130.13;;;8.00;1.00;;;;;;5003619;28;19925;-73
2023/01/16 08:56:09;;;;;;;220.48;132.25;;;8.10;1.00;;;;;;5010678;28;20077;-72
2023/01/16 08:58:36;;;;;;;216.48;128.80;;;8.20;1.00;;;;;;5011758;28;20050;-72
2023/01/16 09:01:03;;;;;;;226.45;138.02;;;8.20;1.00;;;;;;5010399;28;20037;-73
2023/01/16 09:03:31;;;;;;;211.80;129.05;;;8.30;1.00;;;;;;5011757;28;20129;-73
2023/01/16 09:05:58;;;;;;;198.07;122.80;;;8.20;1.00;;;;;;5011572;28;20685;-73
2023/01/16 09:08:26;;;;;;;148.13;90.30;;;8.30;1.00;;;;;;5011488;28;20405;-75
2023/01/16 09:13:51;;;;;;;183.88;111.97;;;8.70;1.00;;;;;;4978337;28;20057;-73
2023/01/16 09:16:19;;;;;;;195.35;112.22;;;8.80;1.00;;;;;;5011437;28;20053;-73
2023/01/16 09:18:47;;;;;;;151.13;91.72;;;8.90;1.00;;;;;;5012314;28;20045;-74
2023/01/16 09:21:15;;;;;;;149.60;95.45;;;9.00;1.00;;;;;;4993581;28;20088;-73
2023/01/16 09:23:42;;;;;;;139.35;84.60;;;9.00;1.00;;;;;;5011950;28;20049;-74
2023/01/16 09:26:11;;;;;;;146.40;86.28;;;9.20;1.00;;;;;;5010855;28;20604;-74
2023/01/16 09:28:38;;;;;;;143.70;86.70;;;9.30;1.00;;;;;;5011472;28;20054;-75
2023/01/16 09:31:06;;;;;;;134.55;82.80;;;9.50;1.00;;;;;;5011586;28;20038;-74
2023/01/16 09:33:33;;;;;;;132.48;80.82;;;9.60;1.00;;;;;;5011318;28;20069;-74
2023/01/16 09:36:01;;;;;;;134.27;75.85;;;9.60;1.00;;;;;;5010661;28;20084;-73
2023/01/16 09:38:28;;;;;;;128.30;75.55;;;9.70;1.00;;;;;;5011348;28;20512;-75
2023/01/16 09:40:58;;;;;;;111.47;69.50;;;9.70;1.00;;;;;;4992449;28;20050;-74
2023/01/16 09:43:40;;;;;;;103.70;63.42;;;9.80;1.00;;;;;;5011355;28;20038;-74
2023/01/16 09:46:13;;;;;;;86.03;53.80;;;10.00;1.00;;;;;;5011654;28;20071;-75
2023/01/16 09:48:48;;;;;;;79.97;50.33;;;9.90;1.00;;;;;;5010503;28;20511;-73
2023/01/16 09:51:21;;;;;;;73.55;46.17;;;9.90;1.00;;;;;;5010141;28;20354;-74
2023/01/16 09:59:34;;;;;;;100.90;57.58;;;10.40;1.00;;;;;;5011045;28;20046;-73
2023/01/16 10:02:12;;;;;;;103.70;60.33;;;10.70;1.00;;;;;;4992050;28;20057;-74
2023/01/16 10:04:39;;;;;;;85.20;51.30;;;10.90;1.00;;;;;;5010909;28;20033;-73
2023/01/16 10:07:27;;;;;;;79.68;49.25;;;11.10;1.00;;;;;;5010554;28;20041;-73
2023/01/16 10:10:03;;;;;;;70.35;39.50;;;11.30;1.00;;;;;;5010058;28;20042;-74
2023/01/16 10:12:35;;;;;;;67.45;41.97;;;11.80;1.00;;;;;;5009260;28;20054;-72
2023/01/16 10:15:22;;;;;;;78.18;47.25;;;12.30;1.00;;;;;;5009513;28;20068;-73
2023/01/16 10:18:01;;;;;;;86.75;54.88;;;12.90;1.00;;;;;;5011123;28;20042;-72
2023/01/16 10:20:47;;;;;;;63.60;41.35;;;13.30;1.00;;;;;;5010629;28;20050;-74
2023/01/16 10:23:22;;;;;;;;;;;13.50;1.00;;;;;;5010073;28;20112;-72
2023/01/16 10:25:57;;;;;;;37.83;24.55;;;13.60;1.00;;;;;;5010732;28;19928;-74
2023/01/16 10:28:42;;;;;;;32.95;20.63;;;13.80;1.00;;;;;;5009904;28;20044;-73
2023/01/16 10:31:16;;;;;;;40.80;22.25;;;13.40;1.00;;;;;;5008705;28;20046;-73
2023/01/16 10:33:48;;;;;;;32.50;19.70;;;13.50;1.00;;;;;;5010085;28;20033;-72
2023/01/16 10:36:18;;;;;;;23.02;15.52;;;13.50;1.00;;;;;;5010189;28;20505;-73
2023/01/16 10:38:51;;;;;;;21.88;14.23;;;13.50;1.00;;;;;;5008386;28;20038;-72
2023/01/16 10:49:55;;;;;;;22.10;10.90;;;13.90;1.00;;;;;;5009229;28;20141;-73
2023/01/16 10:52:24;;;;;;;18.63;11.38;;;14.10;1.00;;;;;;5010393;28;20123;-73
2023/01/16 10:54:53;;;;;;;19.05;10.95;;;14.30;1.00;;;;;;5009188;28;20042;-72
2023/01/16 10:57:21;;;;;;;15.25;7.45;;;14.60;1.00;;;;;;5009813;28;20072;-74
2023/01/16 10:59:53;;;;;;;13.57;7.07;;;14.70;1.00;;;;;;5009627;28;20045;-73
2023/01/16 11:02:29;;;;;;;16.67;8.25;;;14.90;1.00;;;;;;5010268;28;20100;-73
2023/01/16 11:04:56;;;;;;;12.27;7.75;;;15.10;1.00;;;;;;5009054;28;20084;-72
2023/01/16 11:07:27;;;;;;;15.70;8.52;;;15.10;1.00;;;;;;5009192;28;20045;-73
2023/01/16 11:09:55;;;;;;;11.32;5.18;;;15.00;1.00;;;;;;5009544;28;20041;-72
2023/01/16 11:18:31;;;;;;;9.18;3.75;;;14.20;1.00;;;;;;5010026;28;20063;-73
2023/01/16 11:21:02;;;;;;;7.07;3.63;;;14.20;1.00;;;;;;5008484;28;20046;-73
2023/01/16 11:23:39;;;;;;;9.25;3.63;;;14.30;1.00;;;;;;5009085;28;20054;-72
2023/01/16 11:26:08;;;;;;;8.13;4.20;;;14.30;1.00;;;;;;5009716;28;20589;-72
2023/01/16 11:28:36;;;;;;;6.60;3.40;;;14.40;1.00;;;;;;5010390;28;20038;-72
2023/01/16 11:31:12;;;;;;;7.40;3.95;;;14.40;1.00;;;;;;5008965;28;20042;-73
2023/01/16 11:33:45;;;;;;;5.13;3.13;;;14.40;1.00;;;;;;5009451;28;20050;-73
2023/01/16 11:36:16;;;;;;;8.30;4.15;;;14.20;1.00;;;;;;5008790;28;20044;-73
2023/01/16 11:38:47;;;;;;;7.20;4.32;;;14.20;1.00;;;;;;5010116;28;20042;-72
2023/01/16 11:41:19;;;;;;;8.05;4.38;;;14.20;1.00;;;;;;5008739;28;20038;-72
2023/01/16 11:46:50;;;;;;;7.70;4.25;;;14.20;1.00;;;;;;5008364;28;20066;-73
2023/01/16 11:49:26;;;;;;;11.13;4.63;;;14.30;1.00;;;;;;5011617;28;20494;-74
2023/01/16 11:51:54;;;;;;;10.73;4.85;;;14.30;1.00;;;;;;5014345;28;20069;-71
2023/01/16 11:54:25;;;;;;;9.52;4.15;;;14.30;1.00;;;;;;4993193;28;20068;-73
2023/01/16 11:57:15;;;;;;;6.85;3.75;;;14.20;1.00;;;;;;5009245;28;20041;-71
2023/01/16 12:00:06;;;;;;;11.73;5.55;;;14.10;1.00;;;;;;5007338;28;20164;-72
2023/01/16 12:02:56;;;;;;;10.18;4.85;;;14.00;1.00;;;;;;5008980;28;20053;-71
2023/01/16 12:05:56;;;;;;;17.17;8.48;;;13.90;1.00;;;;;;5007818;28;20037;-72
2023/01/16 12:08:59;;;;;;;14.13;8.57;;;13.80;1.00;;;;;;4991694;28;20064;-73
2023/01/16 12:11:39;;;;;;;16.80;8.98;;;13.80;1.00;;;;;;4969476;28;20116;-72
2023/01/16 12:14:21;;;;;;;19.15;10.23;;;13.80;1.00;;;;;;5011463;28;20041;-73
2023/01/16 12:17:06;;;;;;;16.98;9.18;;;13.80;1.00;;;;;;5012945;28;20090;-72
2023/01/16 12:20:19;;;;;;;18.55;9.98;;;13.90;1.00;;;;;;5012146;28;20048;-73
2023/01/16 12:23:12;;;;;;;21.65;10.38;;;13.90;1.00;;;;;;5012450;28;20175;-73
2023/01/16 12:25:46;;;;;;;21.85;11.65;;;14.00;1.00;;;;;;5012541;28;20421;-74
2023/01/16 12:28:28;;;;;;;28.13;17.13;;;14.00;1.00;;;;;;5012904;28;20044;-73
2023/01/16 12:31:20;;;;;;;19.00;12.48;;;14.10;1.00;;;;;;5016555;28;20048;-72
2023/01/16 12:33:58;;;;;;;22.92;13.35;;;14.10;1.00;;;;;;5020982;28;20042;-77
2023/01/16 12:36:34;;;;;;;30.20;18.65;;;14.10;1.00;;;;;;5014653;28;20050;-72
2023/01/16 12:39:11;;;;;;;26.30;15.57;;;14.00;1.00;;;;;;5012843;28;20045;-73
2023/01/16 12:44:47;;;;;;;25.70;17.13;;;13.90;1.00;;;;;;5012165;28;20167;-71
2023/01/16 12:47:36;;;;;;;25.42;15.80;;;13.90;1.00;;;;;;5012221;28;20042;-73
2023/01/16 12:50:17;;;;;;;25.05;16.30;;;13.80;1.00;;;;;;5011595;28;20241;-72
2023/01/16 12:53:02;;;;;;;30.42;17.73;;;13.70;1.00;;;;;;5011523;28;20057;-73
2023/01/16 12:55:38;;;;;;;35.25;19.30;;;13.60;1.00;;;;;;5012268;28;20502;-73
2023/01/16 12:58:16;;;;;;;37.65;21.42;;;13.30;1.00;;;;;;5013730;28;20046;-73
2023/01/16 13:00:48;;;;;;;43.50;23.30;;;13.10;1.00;;;;;;5013578;28;20038;-73
2023/01/16 13:03:29;;;;;;;50.13;26.15;;;12.90;1.00;;;;;;5012945;28;20101;-72
2023/01/16 13:05:58;;;;;;;46.70;25.73;;;12.80;1.00;;;;;;5012947;28;20141;-73
2023/01/16 13:08:29;;;;;;;41.92;24.35;;;12.60;1.00;;;;;;5012778;28;20042;-73
2023/01/16 13:13:54;;;;;;;41.80;25.98;;;12.40;1.00;;;;;;5012658;28;20560;-72
2023/01/16 13:16:27;;;;;;;44.10;25.95;;;12.10;1.00;;;;;;5011862;28;20038;-73
2023/01/16 13:19:00;;;;;;;48.25;28.15;;;11.90;1.00;;;;;;5011253;28;20045;-72
2023/01/16 13:21:29;;;;;;;44.53;27.90;;;11.80;1.00;;;;;;5010582;28;20045;-74
2023/01/16 13:24:01;;;;;;;39.45;25.40;;;11.60;1.00;;;;;;5010309;28;20041;-74
2023/01/16 13:26:31;;;;;;;35.13;24.00;;;11.40;1.00;;;;;;5010466;28;20034;-73
2023/01/16 13:29:07;;;;;;;42.53;28.30;;;11.20;1.00;;;;;;5010424;28;20038;-74
2023/01/16 13:31:39;;;;;;;49.55;27.67;;;11.10;88.60;;;;;;5010497;28;20070;-73
2023/01/16 13:34:14;;;;;;;46.65;29.27;;;10.90;99.90;;;;;;5010287;28;20069;-74
2023/01/16 13:37:23;;;;;;;35.53;24.43;;;10.80;99.90;;;;;;5010784;28;20041;-74
2023/01/16 13:40:27;;;;;;;37.28;24.88;;;10.60;99.90;;;;;;4986054;28;20080;-74
2023/01/16 13:45:47;;;;;;;38.10;25.60;;;10.50;1.00;;;;;;5004404;28;20053;-73
2023/01/16 13:45:49;;;;;;;32.50;22.52;;;10.50;1.00;;;;;;5010650;28;20129;-74
2023/01/16 13:48:19;;;;;;;27.70;20.45;;;10.10;1.00;;;;;;5010902;28;20126;-73
2023/01/16 13:50:53;;;;;;;31.13;21.50;;;9.90;99.90;;;;;;5010934;28;20041;-74
2023/01/16 13:53:22;;;;;;;31.48;21.55;;;9.70;1.00;;;;;;5009655;28;20053;-74
2023/01/16 13:55:50;;;;;;;27.77;18.98;;;9.50;1.00;;;;;;5010411;28;20065;-74